Time;durP1;ratioP1;P1;durP2;ratioP2;P2;SDS_P1;SDS_P2;PMS_P1;PMS_P2;Temp;Humidity;BMP_temperature;BMP_pressure;BME280_temperature;BME280_humidity;BME280_pressure;Samples;Min_cycle;Max_cycle;Signal;HPM_P1;HPM_P2
2022/01/04 00:01:31;;;;;;;;;;;;;;;9.43;91.21;97757.44;5038199;28;19916;-79
2022/01/04 00:03:56;;;;;;;;;;;;;;;9.36;93.35;97750.09;5038415;28;19929;-77
2022/01/04 00:06:22;;;;;;;;;;;;;;;8.82;89.57;97746.59;5035873;28;20357;-77
2022/01/04 00:08:47;;;;;;;;;;;;;;;9.15;86.68;97742.50;5026201;28;20046;-78
2022/01/04 00:11:18;;;;;;;;;;;;;;;9.16;85.97;97744.16;5033513;28;19928;-79
2022/01/04 00:13:44;;;;;;;;;;;;;;;8.60;84.75;97747.56;5033652;28;19964;-79
2022/01/04 00:16:10;;;;;;;;;;;;;;;8.61;80.97;97746.66;5033417;28;19959;-79
2022/01/04 00:18:37;;;;;;;;;;;;;;;8.50;79.05;97743.72;5035264;28;19920;-79
2022/01/04 00:21:02;;;;;;;;;;;;;;;8.91;76.40;97733.34;5035049;28;19940;-78
2022/01/04 00:23:28;;;;;;;;;;;;;;;9.29;78.14;97729.00;5029433;28;19917;-78
2022/01/04 00:25:53;;;;;;;;;;;;;;;9.64;80.89;97724.75;5035661;28;19920;-78
2022/01/04 00:28:19;;;;;;;;;;;;;;;9.54;86.30;97718.41;5024200;28;19925;-79
2022/01/04 00:30:44;;;;;;;;;;;;;;;9.38;87.33;97712.34;5036267;28;19948;-79
2022/01/04 00:33:11;;;;;;;;;;;;;;;8.96;86.72;97708.28;5037501;28;19932;-79
2022/01/04 00:35:37;;;;;;;;;;;;;;;8.96;82.37;97710.84;5034893;28;20426;-77
2022/01/04 00:38:03;;;;;;;;;;;;;;;9.21;81.53;97706.25;5037788;28;19943;-79
2022/01/04 00:40:29;;;;;;;;;;;;;;;9.68;84.75;97699.72;5037840;28;19923;-79
2022/01/04 00:42:55;;;;;;;;;;;;;;;8.87;86.99;97696.75;5018412;28;19983;-77
2022/01/04 00:45:21;;;;;;;;;;;;;;;9.17;84.21;97702.19;5032724;28;19949;-78
2022/01/04 00:50:21;;;;;;;;;;;;;;;8.93;85.52;97693.88;5036550;28;19999;-78
2022/01/04 00:52:47;;;;;;;;;;;;;;;9.04;85.48;97684.84;5034672;28;19925;-79
2022/01/04 00:55:12;;;;;;;;;;;;;;;9.19;85.71;97679.81;5034281;28;19921;-79
2022/01/04 00:57:38;;;;;;;;;;;;;;;9.28;87.73;97682.84;5021298;28;19921;-79
2022/01/04 01:00:07;;;;;;;;;;;;;;;9.15;89.96;97675.72;5036031;28;19983;-79
2022/01/04 01:02:33;;;;;;;;;;;;;;;9.53;88.65;97656.78;5041260;28;20293;-80
2022/01/04 01:04:58;;;;;;;;;;;;;;;9.71;92.07;97655.03;5037790;28;19917;-80
2022/01/04 01:07:23;;;;;;;;;;;;;;;9.28;96.83;97641.72;5015740;28;19944;-79
2022/01/04 01:10:14;;;;;;;;;;;;;;;9.58;97.49;97632.53;5021411;28;19932;-79
2022/01/04 01:12:39;;;;;;;;;;;;;;;9.57;99.56;97630.84;5010675;28;20390;-79
2022/01/04 01:15:05;;;;;;;;;;;;;;;9.74;100.00;97626.59;5005692;28;19980;-80
2022/01/04 01:17:31;;;;;;;;;;;;;;;9.72;100.00;97613.00;5020181;28;19917;-79
2022/01/04 01:19:57;;;;;;;;;;;;;;;9.57;100.00;97605.16;5017343;28;19933;-78
2022/01/04 01:22:22;;;;;;;;;;;;;;;9.48;100.00;97600.47;5001148;28;20488;-79
2022/01/04 01:24:48;;;;;;;;;;;;;;;9.57;100.00;97589.72;5017375;28;20346;-79
2022/01/04 01:27:13;;;;;;;;;;;;;;;9.86;100.00;97584.84;5019000;28;19925;-78
2022/01/04 01:29:39;;;;;;;;;;;;;;;9.75;100.00;97587.13;5018261;28;20030;-79
2022/01/04 01:32:04;;;;;;;;;;;;;;;9.27;100.00;97581.81;5019359;28;19996;-79
2022/01/04 01:34:29;;;;;;;;;;;;;;;9.36;100.00;97576.22;5005662;28;19956;-79
2022/01/04 01:36:55;;;;;;;;;;;;;;;9.10;100.00;97579.25;5023079;28;20352;-79
2022/01/04 01:39:20;;;;;;;;;;;;;;;9.35;100.00;97566.03;5037998;28;19928;-78
2022/01/04 01:41:46;;;;;;;;;;;;;;;9.42;100.00;97565.66;5005437;28;20026;-79
2022/01/04 01:44:11;;;;;;;;;;;;;;;9.41;100.00;97558.00;5021426;28;19921;-79
2022/01/04 01:46:37;;;;;;;;;;;;;;;9.15;100.00;97556.75;5027154;28;19925;-80
2022/01/04 01:49:02;;;;;;;;;;;;;;;9.24;100.00;97543.47;5009786;28;19921;-79
2022/01/04 01:51:28;;;;;;;;;;;;;;;9.30;100.00;97545.69;5023809;28;20822;-79
2022/01/04 01:53:53;;;;;;;;;;;;;;;9.18;100.00;97542.00;5022630;28;19988;-79
2022/01/04 01:56:19;;;;;;;;;;;;;;;9.26;100.00;97543.34;5025782;28;19925;-80
2022/01/04 01:58:44;;;;;;;;;;;;;;;9.14;100.00;97535.34;5008987;28;20284;-79
2022/01/04 02:01:11;;;;;;;;;;;;;;;9.38;100.00;97535.06;5023261;28;19984;-80
2022/01/04 02:03:37;;;;;;;;;;;;;;;9.23;100.00;97533.25;5023227;28;19921;-80
2022/01/04 02:06:02;;;;;;;;;;;;;;;9.28;100.00;97526.97;5007076;28;19925;-78
2022/01/04 02:08:28;;;;;;;;;;;;;;;9.39;100.00;97516.97;5021023;28;19928;-79
2022/01/04 02:10:53;;;;;;;;;;;;;;;9.11;100.00;97517.53;5003825;28;19928;-79
2022/01/04 02:13:19;;;;;;;;;;;;;;;8.88;100.00;97505.03;5022451;28;19927;-80
2022/01/04 02:15:44;;;;;;;;;;;;;;;9.18;100.00;97503.47;5019582;28;19928;-78
2022/01/04 02:18:10;;;;;;;;;;;;;;;9.00;100.00;97507.78;5020824;28;19999;-78
2022/01/04 02:20:35;;;;;;;;;;;;;;;9.23;100.00;97507.56;5019534;28;19932;-79
2022/01/04 02:23:01;;;;;;;;;;;;;;;9.08;100.00;97499.72;5021569;28;19921;-78
2022/01/04 02:25:26;;;;;;;;;;;;;;;9.20;100.00;97493.97;5018839;28;19921;-79
2022/01/04 02:27:52;;;;;;;;;;;;;;;9.25;100.00;97490.34;5006018;28;19922;-79
2022/01/04 02:30:18;;;;;;;;;;;;;;;9.28;100.00;97490.16;5003141;28;19939;-79
2022/01/04 02:32:44;;;;;;;;;;;;;;;9.40;100.00;97485.25;5010762;28;19976;-80
2022/01/04 02:35:10;;;;;;;;;;;;;;;9.43;100.00;97484.25;5012741;28;20038;-79
2022/01/04 02:37:35;;;;;;;;;;;;;;;9.43;100.00;97479.13;5021146;28;20417;-79
2022/01/04 02:40:01;;;;;;;;;;;;;;;9.19;100.00;97473.47;5006074;28;19913;-79
2022/01/04 02:42:26;;;;;;;;;;;;;;;9.36;100.00;97476.03;5004414;28;19964;-78
2022/01/04 02:44:52;;;;;;;;;;;;;;;9.38;100.00;97465.69;5004485;28;19914;-78
2022/01/04 02:47:17;;;;;;;;;;;;;;;9.25;100.00;97480.06;5020527;28;19980;-80
2022/01/04 02:49:43;;;;;;;;;;;;;;;9.15;100.00;97464.28;5001863;28;19948;-78
2022/01/04 02:52:08;;;;;;;;;;;;;;;9.25;100.00;97459.50;5010691;28;20063;-79
2022/01/04 02:54:34;;;;;;;;;;;;;;;9.21;100.00;97459.69;5011759;28;19921;-79
2022/01/04 02:56:59;;;;;;;;;;;;;;;9.07;100.00;97462.09;5015654;28;20016;-80
2022/01/04 02:59:25;;;;;;;;;;;;;;;9.17;100.00;97459.91;5019460;28;19922;-79
2022/01/04 03:01:50;;;;;;;;;;;;;;;9.02;100.00;97461.50;5018975;28;19928;-79
2022/01/04 03:04:15;;;;;;;;;;;;;;;9.16;100.00;97453.94;5008150;28;20333;-80
2022/01/04 03:06:41;;;;;;;;;;;;;;;8.92;100.00;97455.19;5024956;28;19993;-79
2022/01/04 03:09:06;;;;;;;;;;;;;;;8.97;100.00;97450.66;5039365;28;19936;-79
2022/01/04 03:11:32;;;;;;;;;;;;;;;9.15;100.00;97443.75;5038594;28;19924;-78
2022/01/04 03:13:58;;;;;;;;;;;;;;;9.11;100.00;97447.38;5038411;28;19917;-80
2022/01/04 03:16:23;;;;;;;;;;;;;;;9.15;100.00;97441.19;5022424;28;19917;-80
2022/01/04 03:21:20;;;;;;;;;;;;;;;9.09;100.00;97434.59;5037227;28;19917;-78
2022/01/04 03:23:45;;;;;;;;;;;;;;;9.10;100.00;97435.44;5020145;28;19921;-79
2022/01/04 03:26:11;;;;;;;;;;;;;;;9.06;100.00;97428.81;5036045;28;19925;-79
2022/01/04 03:28:40;;;;;;;;;;;;;;;8.79;100.00;97437.81;5019288;28;20043;-80
2022/01/04 03:31:05;;;;;;;;;;;;;;;8.94;100.00;97440.50;5022274;28;19913;-79
2022/01/04 03:33:31;;;;;;;;;;;;;;;9.06;100.00;97432.19;5019948;28;20905;-79
2022/01/04 03:35:56;;;;;;;;;;;;;;;8.73;100.00;97422.72;5037659;28;19935;-79
2022/01/04 03:38:22;;;;;;;;;;;;;;;8.89;100.00;97417.63;5034557;28;19921;-80
2022/01/04 03:40:48;;;;;;;;;;;;;;;8.90;100.00;97423.63;5035919;28;19925;-78
2022/01/04 03:43:13;;;;;;;;;;;;;;;9.04;100.00;97420.34;5039756;28;20350;-79
2022/01/04 03:45:38;;;;;;;;;;;;;;;8.78;100.00;97413.06;5020026;28;19921;-79
2022/01/04 03:48:04;;;;;;;;;;;;;;;8.55;100.00;97413.34;5037104;28;20033;-79
2022/01/04 03:50:29;;;;;;;;;;;;;;;8.77;100.00;97408.00;5019795;28;20039;-79
2022/01/04 03:52:57;;;;;;;;;;;;;;;8.86;100.00;97391.31;5037948;28;20124;-79
2022/01/04 03:55:22;;;;;;;;;;;;;;;8.42;100.00;97396.94;5019198;28;19922;-79
2022/01/04 03:57:47;;;;;;;;;;;;;;;8.73;100.00;97389.34;5036537;28;19921;-79
2022/01/04 04:00:13;;;;;;;;;;;;;;;8.95;100.00;97391.66;5018313;28;19975;-79
2022/01/04 04:02:39;;;;;;;;;;;;;;;8.98;100.00;97390.66;5034851;28;19921;-79
2022/01/04 04:05:05;;;;;;;;;;;;;;;9.02;100.00;97381.09;5037302;28;19991;-80
2022/01/04 04:07:30;;;;;;;;;;;;;;;8.90;100.00;97377.41;5032454;28;19936;-79
2022/01/04 04:09:55;;;;;;;;;;;;;;;9.01;100.00;97364.84;5021069;28;19921;-79
2022/01/04 04:12:23;;;;;;;;;;;;;;;8.62;100.00;97350.59;5018704;28;19921;-79
2022/01/04 04:14:48;;;;;;;;;;;;;;;8.90;100.00;97346.63;5023214;28;19920;-79
2022/01/04 04:17:14;;;;;;;;;;;;;;;8.79;100.00;97345.41;5041122;28;19916;-79
2022/01/04 04:19:39;;;;;;;;;;;;;;;9.05;100.00;97337.25;5022700;28;19925;-79
2022/01/04 04:22:04;;;;;;;;;;;;;;;8.68;100.00;97331.47;5022166;28;20590;-78
2022/01/04 04:24:30;;;;;;;;;;;;;;;8.74;100.00;97328.59;5040243;28;19956;-78
2022/01/04 04:26:55;;;;;;;;;;;;;;;8.58;100.00;97315.72;5036787;28;19919;-78
2022/01/04 04:29:21;;;;;;;;;;;;;;;8.56;100.00;97312.41;5020931;28;19971;-79
2022/01/04 04:31:46;;;;;;;;;;;;;;;8.38;100.00;97304.69;5038401;28;19917;-79
2022/01/04 04:34:12;;;;;;;;;;;;;;;8.47;100.00;97302.63;5036453;28;19917;-78
2022/01/04 04:36:37;;;;;;;;;;;;;;;8.46;100.00;97300.94;5027971;28;19917;-80
2022/01/04 04:39:03;;;;;;;;;;;;;;;8.24;100.00;97289.19;5039007;28;19921;-79
2022/01/04 04:41:28;;;;;;;;;;;;;;;8.47;100.00;97295.75;5036933;28;19924;-79
2022/01/04 04:43:54;;;;;;;;;;;;;;;8.40;100.00;97285.84;5039214;28;20003;-79
2022/01/04 04:46:20;;;;;;;;;;;;;;;8.59;100.00;97286.59;5041766;28;19971;-78
2022/01/04 04:48:46;;;;;;;;;;;;;;;8.45;100.00;97271.06;5035731;28;20035;-78
2022/01/04 04:51:11;;;;;;;;;;;;;;;8.22;100.00;97262.78;5017247;28;19913;-79
2022/01/04 04:53:36;;;;;;;;;;;;;;;8.59;100.00;97260.94;5020695;28;19939;-78
2022/01/04 04:56:02;;;;;;;;;;;;;;;8.60;100.00;97260.03;5036558;28;19928;-79
2022/01/04 04:58:29;;;;;;;;;;;;;;;8.81;100.00;97250.38;5035529;28;19925;-79
2022/01/04 05:00:54;;;;;;;;;;;;;;;8.72;100.00;97246.53;5035025;28;19960;-79
2022/01/04 05:03:20;;;;;;;;;;;;;;;8.83;100.00;97247.75;5035491;28;19920;-79
2022/01/04 05:05:45;;;;;;;;;;;;;;;8.56;100.00;97241.38;5009092;28;19987;-78
2022/01/04 05:08:10;;;;;;;;;;;;;;;8.92;100.00;97239.53;5025227;28;19921;-79
2022/01/04 05:10:36;;;;;;;;;;;;;;;8.89;100.00;97237.13;5026013;28;19920;-78
2022/01/04 05:13:01;;;;;;;;;;;;;;;8.72;100.00;97226.03;5027224;28;19952;-78
2022/01/04 05:15:26;;;;;;;;;;;;;;;9.14;100.00;97219.47;5026864;28;19917;-78
2022/01/04 05:17:52;;;;;;;;;;;;;;;9.00;100.00;97219.41;5027370;28;19921;-79
2022/01/04 05:20:17;;;;;;;;;;;;;;;8.91;100.00;97215.59;5008395;28;19913;-79
2022/01/04 05:22:43;;;;;;;;;;;;;;;8.97;100.00;97219.56;5024638;28;20417;-79
2022/01/04 05:25:08;;;;;;;;;;;;;;;9.17;100.00;97211.63;5025766;28;20382;-79
2022/01/04 05:27:34;;;;;;;;;;;;;;;9.01;100.00;97208.25;5025172;28;19921;-79
2022/01/04 05:29:59;;;;;;;;;;;;;;;9.04;100.00;97210.63;5043695;28;19931;-79
2022/01/04 05:32:25;;;;;;;;;;;;;;;8.28;100.00;97210.34;5026100;28;20028;-79
2022/01/04 05:34:50;;;;;;;;;;;;;;;8.82;100.00;97212.69;5024150;28;19921;-77
2022/01/04 05:37:15;;;;;;;;;;;;;;;8.82;100.00;97216.09;5026032;28;19917;-79
2022/01/04 05:39:40;;;;;;;;;;;;;;;9.05;100.00;97214.84;5026868;28;19928;-80
2022/01/04 05:42:08;;;;;;;;;;;;;;;8.79;100.00;97219.66;5020972;28;19921;-79
2022/01/04 05:44:34;;;;;;;;;;;;;;;9.02;100.00;97215.00;5027582;28;19947;-78
2022/01/04 05:46:59;;;;;;;;;;;;;;;8.94;100.00;97215.44;5026491;28;19928;-79
2022/01/04 05:49:25;;;;;;;;;;;;;;;8.86;100.00;97211.63;5025984;28;19917;-77
2022/01/04 05:51:50;;;;;;;;;;;;;;;7.80;100.00;97223.00;5027060;28;19932;-79
2022/01/04 05:54:16;;;;;;;;;;;;;;;8.11;100.00;97235.09;5025300;28;20378;-78
2022/01/04 05:56:41;;;;;;;;;;;;;;;8.12;100.00;97236.78;5026823;28;19917;-79
2022/01/04 05:59:06;;;;;;;;;;;;;;;8.55;100.00;97236.31;5027222;28;19948;-79
2022/01/04 06:01:31;;;;;;;;;;;;;;;8.63;100.00;97236.78;5025083;28;19921;-79
2022/01/04 06:03:57;;;;;;;;;;;;;;;8.11;100.00;97235.09;5024878;28;19921;-79
2022/01/04 06:06:22;;;;;;;;;;;;;;;8.52;100.00;97228.81;5007205;28;19925;-78
2022/01/04 06:08:48;;;;;;;;;;;;;;;8.05;100.00;97232.03;5016965;28;19932;-78
2022/01/04 06:11:30;;;;;;;;;;;;;;;8.67;100.00;97222.88;5013878;28;19922;-79
2022/01/04 06:16:40;;;;;;;;;;;;;;;9.02;100.00;97202.19;5012429;28;19972;-79
2022/01/04 06:19:05;;;;;;;;;;;;;;;9.05;100.00;97191.72;5018084;28;20294;-79
2022/01/04 06:21:31;;;;;;;;;;;;;;;8.96;100.00;97190.50;5016294;28;19924;-78
2022/01/04 06:23:57;;;;;;;;;;;;;;;9.14;100.00;97183.50;5016429;28;20032;-79
2022/01/04 06:26:23;;;;;;;;;;;;;;;9.20;100.00;97182.38;5014067;28;19928;-79
2022/01/04 06:28:48;;;;;;;;;;;;;;;9.12;100.00;97181.94;5014494;28;20382;-79
2022/01/04 06:31:14;;;;;;;;;;;;;;;8.71;100.00;97173.06;5031053;28;19921;-79
2022/01/04 06:33:39;;;;;;;;;;;;;;;9.07;100.00;97174.50;5009154;28;19925;-78
2022/01/04 06:36:07;;;;;;;;;;;;;;;8.66;100.00;97177.56;5023109;28;19917;-79
2022/01/04 06:38:32;;;;;;;;;;;;;;;8.96;100.00;97164.00;5017013;28;19921;-79
2022/01/04 06:40:58;;;;;;;;;;;;;;;8.67;100.00;97176.69;5017382;28;20405;-79
2022/01/04 06:43:23;;;;;;;;;;;;;;;9.00;100.00;97163.75;5011257;28;19921;-79
2022/01/04 06:45:49;;;;;;;;;;;;;;;8.81;100.00;97169.97;5019695;28;19925;-77
2022/01/04 06:48:14;;;;;;;;;;;;;;;8.74;100.00;97167.75;5016738;28;19921;-79
2022/01/04 06:50:39;;;;;;;;;;;;;;;8.81;100.00;97157.16;5018096;28;20559;-79
2022/01/04 06:53:04;;;;;;;;;;;;;;;8.66;100.00;97154.47;5008753;28;20255;-79
2022/01/04 06:55:30;;;;;;;;;;;;;;;8.71;100.00;97152.53;5001854;28;19924;-78
2022/01/04 06:57:56;;;;;;;;;;;;;;;8.91;100.00;97140.31;5000610;28;19947;-79
2022/01/04 07:00:21;;;;;;;;;;;;;;;8.42;100.00;97146.38;5017012;28;20366;-79
2022/01/04 07:02:46;;;;;;;;;;;;;;;8.96;100.00;97152.00;5017877;28;19968;-79
2022/01/04 07:05:19;;;;;;;;;;;;;;;8.76;100.00;97140.25;5024490;28;19921;-80
2022/01/04 07:07:44;;;;;;;;;;;;;;;8.52;100.00;97133.88;5027533;28;20015;-78
2022/01/04 07:10:10;;;;;;;;;;;;;;;8.99;100.00;97135.59;5037639;28;19978;-79
2022/01/04 07:12:35;;;;;;;;;;;;;;;8.93;100.00;97130.78;5037069;28;19925;-78
2022/01/04 07:15:01;;;;;;;;;;;;;;;8.24;100.00;97125.06;5021381;28;20538;-78
2022/01/04 07:17:27;;;;;;;;;;;;;;;8.35;100.00;97133.00;5030075;28;19921;-78
2022/01/04 07:19:53;;;;;;;;;;;;;;;8.67;100.00;97125.34;5037351;28;19921;-79
2022/01/04 07:22:18;;;;;;;;;;;;;;;8.58;100.00;97123.28;5040679;28;19982;-77
2022/01/04 07:24:44;;;;;;;;;;;;;;;8.26;100.00;97119.88;5046600;28;19952;-79
2022/01/04 07:27:10;;;;;;;;;;;;;;;8.17;100.00;97121.97;5023482;28;20306;-78
2022/01/04 07:29:35;;;;;;;;;;;;;;;8.28;100.00;97129.13;5040442;28;19992;-78
2022/01/04 07:32:01;;;;;;;;;;;;;;;8.34;100.00;97118.53;5037507;28;20371;-78
2022/01/04 07:34:26;;;;;;;;;;;;;;;8.38;100.00;97119.19;5036999;28;19920;-78
2022/01/04 07:36:52;;;;;;;;;;;;;;;8.43;100.00;97126.69;5039306;28;19920;-78
2022/01/04 07:39:17;;;;;;;;;;;;;;;8.32;100.00;97135.72;5039134;28;19921;-78
2022/01/04 07:41:42;;;;;;;;;;;;;;;8.57;100.00;97124.19;5038795;28;20151;-78
2022/01/04 07:44:08;;;;;;;;;;;;;;;8.64;100.00;97122.94;5036912;28;19921;-79
2022/01/04 07:46:34;;;;;;;;;;;;;;;8.69;100.00;97118.41;5038271;28;19921;-78
2022/01/04 07:49:00;;;;;;;;;;;;;;;8.64;100.00;97122.94;5017348;28;20460;-78
2022/01/04 07:51:26;;;;;;;;;;;;;;;8.76;100.00;97112.03;5036885;28;19944;-79
2022/01/04 07:53:52;;;;;;;;;;;;;;;8.74;100.00;97116.41;5033465;28;19917;-78
2022/01/04 07:56:17;;;;;;;;;;;;;;;8.58;100.00;97113.03;5026971;28;19931;-78
2022/01/04 07:58:42;;;;;;;;;;;;;;;8.57;100.00;97108.78;5027432;28;19925;-77
2022/01/04 08:01:08;;;;;;;;;;;;;;;8.75;100.00;97107.78;5033312;28;19961;-78
2022/01/04 08:03:33;;;;;;;;;;;;;;;8.67;100.00;97115.09;5038973;28;20302;-76
2022/01/04 08:05:59;;;;;;;;;;;;;;;8.88;100.00;97107.94;5033166;28;19932;-77
2022/01/04 08:08:24;;;;;;;;;;;;;;;8.83;100.00;97104.00;5032810;28;19924;-75
2022/01/04 08:10:51;;;;;;;;;;;;;;;8.77;100.00;97103.41;5039564;28;19964;-76
2022/01/04 08:13:17;;;;;;;;;;;;;;;8.91;100.00;97101.81;5022192;28;20059;-76
2022/01/04 08:15:42;;;;;;;;;;;;;;;8.54;100.00;97099.53;5022343;28;19959;-78
2022/01/04 08:18:08;;;;;;;;;;;;;;;8.81;100.00;97108.38;5035888;28;19920;-78
2022/01/04 08:20:33;;;;;;;;;;;;;;;8.73;100.00;97094.22;5035619;28;19928;-79
2022/01/04 08:22:59;;;;;;;;;;;;;;;8.84;100.00;97100.50;5034490;28;19932;-79
2022/01/04 08:25:24;;;;;;;;;;;;;;;8.88;100.00;97102.81;5017274;28;20425;-78
2022/01/04 08:27:52;;;;;;;;;;;;;;;8.75;100.00;97094.97;5031511;28;20030;-79
2022/01/04 08:30:18;;;;;;;;;;;;;;;8.79;100.00;97093.88;5049526;28;19928;-79
2022/01/04 08:32:43;;;;;;;;;;;;;;;8.83;100.00;97093.72;5038785;28;19947;-79
2022/01/04 08:35:09;;;;;;;;;;;;;;;8.78;100.00;97093.94;5020456;28;19920;-77
2022/01/04 08:37:34;;;;;;;;;;;;;;;8.47;100.00;97102.53;5021574;28;19913;-77
2022/01/04 08:40:00;;;;;;;;;;;;;;;8.57;100.00;97103.66;5037842;28;19913;-76
2022/01/04 08:42:26;;;;;;;;;;;;;;;8.29;100.00;97099.16;5035098;28;19987;-77
2022/01/04 08:44:52;;;;;;;;;;;;;;;8.48;100.00;97093.91;5037372;28;19913;-78
2022/01/04 08:47:17;;;;;;;;;;;;;;;8.25;100.00;97095.94;5036463;28;19981;-78
2022/01/04 08:49:43;;;;;;;;;;;;;;;8.35;100.00;97101.41;5024030;28;19917;-78
2022/01/04 08:52:08;;;;;;;;;;;;;;;8.51;100.00;97101.44;5036259;28;19964;-79
2022/01/04 08:54:34;;;;;;;;;;;;;;;8.51;100.00;97102.28;5025335;28;19943;-77
2022/01/04 08:57:00;;;;;;;;;;;;;;;8.33;100.00;97110.94;5040359;28;19917;-78
2022/01/04 08:59:25;;;;;;;;;;;;;;;8.34;100.00;97113.38;5035380;28;19917;-77
2022/01/04 09:01:51;;;;;;;;;;;;;;;8.66;100.00;97108.28;5031676;28;19984;-78
2022/01/04 09:04:16;;;;;;;;;;;;;;;8.57;100.00;97112.19;5025513;28;19956;-78
2022/01/04 09:06:41;;;;;;;;;;;;;;;8.44;100.00;97100.94;5019583;28;19921;-78
2022/01/04 09:09:07;;;;;;;;;;;;;;;8.47;100.00;97103.34;5035067;28;19917;-78
2022/01/04 09:11:32;;;;;;;;;;;;;;;8.35;100.00;97084.28;5036985;28;19943;-78
2022/01/04 09:19:30;;;;;;;;;;;;;;;8.13;100.00;97088.91;5036637;28;19924;-78
2022/01/04 09:21:56;;;;;;;;;;;;;;;8.01;100.00;97081.88;5034725;28;20381;-79
2022/01/04 09:24:21;;;;;;;;;;;;;;;7.86;100.00;97079.19;5033801;28;19917;-77
2022/01/04 09:26:47;;;;;;;;;;;;;;;7.94;100.00;97073.66;5033686;28;19921;-78
2022/01/04 09:29:13;;;;;;;;;;;;;;;7.89;100.00;97076.47;5019631;28;20011;-78
2022/01/04 09:31:38;;;;;;;;;;;;;;;7.85;100.00;97080.09;5037142;28;20015;-78
2022/01/04 09:34:04;;;;;;;;;;;;;;;8.06;100.00;97082.44;5032655;28;19957;-78
2022/01/04 09:36:31;;;;;;;;;;;;;;;7.99;100.00;97096.50;5024103;28;20434;-77
2022/01/04 09:38:57;;;;;;;;;;;;;;;8.02;100.00;97121.97;5026047;28;19924;-77
2022/01/04 09:41:22;;;;;;;;;;;;;;;7.48;100.00;97128.09;5036587;28;20457;-78
2022/01/04 09:43:48;;;;;;;;;;;;;;;8.00;100.00;97139.16;5035424;28;19912;-77
2022/01/04 09:46:13;;;;;;;;;;;;;;;8.48;100.00;97137.50;5033095;28;20083;-77
2022/01/04 09:48:38;;;;;;;;;;;;;;;8.64;100.00;97135.78;5032633;28;19953;-77
2022/01/04 09:51:04;;;;;;;;;;;;;;;7.61;100.00;97145.38;5037752;28;20167;-77
2022/01/04 09:53:30;;;;;;;;;;;;;;;8.05;100.00;97142.28;5016695;28;19924;-77
2022/01/04 09:55:56;;;;;;;;;;;;;;;8.52;100.00;97136.44;5035241;28;19933;-77
2022/01/04 09:58:22;;;;;;;;;;;;;;;8.82;100.00;97122.84;5031407;28;20262;-78
2022/01/04 10:00:47;;;;;;;;;;;;;;;8.94;100.00;97106.75;5034360;28;19917;-78
2022/01/04 10:03:14;;;;;;;;;;;;;;;8.56;100.00;97114.84;5036283;28;19957;-77
2022/01/04 10:05:40;;;;;;;;;;;;;;;8.96;100.00;97102.38;5025160;28;19976;-77
2022/01/04 10:08:09;;;;;;;;;;;;;;;8.91;100.00;97091.53;5021882;28;20103;-77
2022/01/04 10:10:35;;;;;;;;;;;;;;;8.99;100.00;97076.56;5036516;28;20441;-77
2022/01/04 10:13:06;;;;;;;;;;;;;;;9.10;100.00;97079.34;5041864;28;20054;-78
2022/01/04 10:15:36;;;;;;;;;;;;;;;9.09;100.00;97080.25;5014955;28;19927;-77
2022/01/04 10:18:14;;;;;;;;;;;;;;;9.05;100.00;97089.03;5036878;28;19923;-77
2022/01/04 10:20:41;;;;;;;;;;;;;;;9.21;100.00;97088.97;5053773;28;19998;-77
2022/01/04 10:23:11;;;;;;;;;;;;;;;8.96;100.00;97076.69;5019726;28;20813;-77
2022/01/04 10:25:37;;;;;;;;;;;;;;;8.95;100.00;97052.78;5017858;28;21010;-77
2022/01/04 10:28:03;;;;;;;;;;;;;;;9.11;100.00;97057.88;5028537;28;19923;-79
2022/01/04 10:30:31;;;;;;;;;;;;;;;9.41;100.00;97051.88;5022409;28;19924;-77
2022/01/04 10:33:13;;;;;;;;;;;;;;;8.61;100.00;97041.00;5044190;28;19920;-77
2022/01/04 10:35:40;;;;;;;;;;;;;;;8.88;100.00;97036.06;5038904;28;19916;-78
2022/01/04 10:38:09;;;;;;;;;;;;;;;9.16;100.00;97040.44;5039434;28;19928;-78
2022/01/04 10:40:37;;;;;;;;;;;;;;;8.87;100.00;97039.56;5057793;28;19916;-77
2022/01/04 10:43:12;;;;;;;;;;;;;;;8.16;100.00;97024.63;5040427;28;19916;-78
2022/01/04 10:45:39;;;;;;;;;;;;;;;8.41;100.00;97033.59;5016226;28;19932;-77
2022/01/04 10:48:12;;;;;;;;;;;;;;;7.75;100.00;97053.28;5040954;28;20015;-77
2022/01/04 10:50:38;;;;;;;;;;;;;;;7.81;100.00;97063.22;5020577;28;19916;-78
2022/01/04 10:53:06;;;;;;;;;;;;;;;7.85;100.00;97072.41;5024932;28;19951;-79
2022/01/04 10:55:38;;;;;;;;;;;;;;;7.67;100.00;97073.34;5019860;28;20379;-78
2022/01/04 10:58:06;;;;;;;;;;;;;;;7.77;100.00;97094.19;5024974;28;20036;-77
2022/01/04 11:00:33;;;;;;;;;;;;;;;7.52;100.00;97093.69;5018515;28;19927;-76
2022/01/04 11:03:02;;;;;;;;;;;;;;;8.05;97.65;97096.16;5020683;28;19913;-77
2022/01/04 11:05:31;;;;;;;;;;;;;;;7.96;99.67;97088.06;5030164;28;19917;-78
2022/01/04 11:08:12;;;;;;;;;;;;;;;8.02;100.00;97098.88;4989534;28;19925;-78
2022/01/04 11:10:40;;;;;;;;;;;;;;;7.45;100.00;97094.91;5006732;28;20436;-77
2022/01/04 11:13:08;;;;;;;;;;;;;;;7.85;100.00;97092.91;5004074;28;20020;-77
2022/01/04 11:15:34;;;;;;;;;;;;;;;7.72;97.65;97097.00;4990375;28;20430;-78
2022/01/04 11:18:02;;;;;;;;;;;;;;;7.76;96.45;97095.94;4998273;28;20233;-77
2022/01/04 11:20:28;;;;;;;;;;;;;;;7.21;96.67;97088.47;5006348;28;19921;-78
2022/01/04 11:22:55;;;;;;;;;;;;;;;7.70;92.73;97081.69;5005954;28;20008;-77
2022/01/04 11:25:23;;;;;;;;;;;;;;;7.88;93.32;97081.66;4996134;28;19923;-79
2022/01/04 11:27:51;;;;;;;;;;;;;;;7.59;96.36;97067.78;5006706;28;19976;-77
2022/01/04 11:30:18;;;;;;;;;;;;;;;8.16;94.56;97068.22;5004755;28;19921;-78
2022/01/04 11:32:46;;;;;;;;;;;;;;;7.39;96.95;97077.31;5004386;28;20299;-77
2022/01/04 11:35:19;;;;;;;;;;;;;;;7.50;95.50;97089.56;4988263;28;19921;-77
2022/01/04 11:37:55;;;;;;;;;;;;;;;7.71;92.77;97074.88;4990539;28;19928;-77
2022/01/04 11:40:26;;;;;;;;;;;;;;;7.75;94.25;97077.19;5007243;28;19913;-78
2022/01/04 11:42:55;;;;;;;;;;;;;;;7.71;93.27;97069.75;5005306;28;19952;-78
2022/01/04 11:45:41;;;;;;;;;;;;;;;8.06;92.11;97067.06;5005895;28;20329;-77
2022/01/04 11:48:26;;;;;;;;;;;;;;;7.93;91.99;97083.06;5008023;28;19917;-77
2022/01/04 11:50:55;;;;;;;;;;;;;;;7.63;92.27;97094.91;5005363;28;20162;-79
2022/01/04 11:53:21;;;;;;;;;;;;;;;7.92;92.22;97101.94;5001268;28;19964;-77
2022/01/04 11:55:50;;;;;;;;;;;;;;;7.71;91.49;97095.34;4990553;28;19921;-78
2022/01/04 11:58:20;;;;;;;;;;;;;;;7.12;88.76;97082.88;5005043;28;19948;-78
2022/01/04 12:00:55;;;;;;;;;;;;;;;7.72;83.06;97089.31;5004960;28;20024;-77
2022/01/04 12:03:30;;;;;;;;;;;;;;;7.17;82.74;97086.97;5004909;28;19918;-77
2022/01/04 12:05:56;;;;;;;;;;;;;;;7.50;78.30;97099.81;5008675;28;19925;-77
2022/01/04 12:08:28;;;;;;;;;;;;;;;7.26;77.85;97099.31;5035685;28;19916;-77
2022/01/04 12:10:57;;;;;;;;;;;;;;;7.32;74.07;97102.41;5034823;28;19917;-77
2022/01/04 12:13:25;;;;;;;;;;;;;;;7.26;70.64;97100.13;5030026;28;20535;-77
2022/01/04 12:15:51;;;;;;;;;;;;;;;6.95;70.15;97093.09;5035301;28;19918;-77
2022/01/04 12:18:24;;;;;;;;;;;;;;;7.23;64.25;97102.00;5031878;28;20027;-77
2022/01/04 12:20:52;;;;;;;;;;;;;;;6.99;62.66;97106.59;5052891;28;20520;-77
2022/01/04 12:23:31;;;;;;;;;;;;;;;7.01;58.44;97102.22;5022980;28;19928;-78
2022/01/04 12:26:03;;;;;;;;;;;;;;;7.39;54.32;97105.50;5039458;28;19920;-78
2022/01/04 12:28:48;;;;;;;;;;;;;;;7.05;55.59;97098.63;5053166;28;20136;-78
2022/01/04 12:31:15;;;;;;;;;;;;;;;6.92;51.82;97108.63;5033038;28;19967;-77
2022/01/04 12:33:48;;;;;;;;;;;;;;;7.02;48.80;97093.66;5038539;28;19944;-78
2022/01/04 12:36:23;;;;;;;;;;;;;;;6.96;46.05;97110.13;5036134;28;19920;-77
2022/01/04 12:38:49;;;;;;;;;;;;;;;6.95;43.04;97105.91;5038717;28;21002;-77
2022/01/04 12:41:15;;;;;;;;;;;;;;;6.77;39.71;97114.44;5031066;28;19929;-78
2022/01/04 12:43:40;;;;;;;;;;;;;;;7.17;34.55;97117.69;5031356;28;19925;-79
2022/01/04 12:46:06;;;;;;;;;;;;;;;7.44;32.74;97120.63;5036637;28;19920;-76
2022/01/04 12:48:47;;;;;;;;;;;;;;;7.38;34.02;97133.72;5035617;28;19917;-78
2022/01/04 12:51:28;;;;;;;;;;;;;;;7.51;34.29;97133.03;5035113;28;19928;-78
2022/01/04 12:53:54;;;;;;;;;;;;;;;7.65;34.37;97128.97;5037239;28;19932;-79
2022/01/04 12:56:20;;;;;;;;;;;;;;;7.84;34.04;97124.56;5038911;28;19928;-78
2022/01/04 12:58:46;;;;;;;;;;;;;;;7.71;36.98;97139.75;5033669;28;20370;-76
2022/01/04 13:01:11;;;;;;;;;;;;;;;7.77;37.36;97136.03;5032605;28;19933;-77